createdAt,value
2022-10-05T00:01:29.985Z,76.19
2022-10-05T00:04:10.747Z,74.97
2022-10-05T00:06:38.919Z,74.54
2022-10-05T00:09:17.529Z,74.58
2022-10-05T00:11:46.423Z,75.12
2022-10-05T00:14:19.364Z,75.10
2022-10-05T00:16:48.411Z,74.03
2022-10-05T00:19:27.774Z,74.09
2022-10-05T00:22:00.287Z,72.99
2022-10-05T00:24:31.030Z,73.78
2022-10-05T00:27:02.189Z,73.13
2022-10-05T00:29:30.235Z,73.08
2022-10-05T00:31:58.266Z,72.79
2022-10-05T00:34:26.717Z,73.64
2022-10-05T00:36:54.757Z,74.31
2022-10-05T00:39:22.809Z,74.39
2022-10-05T00:42:11.960Z,74.54
2022-10-05T00:44:46.548Z,73.98
2022-10-05T00:47:41.882Z,73.75
2022-10-05T00:50:57.621Z,74.70
2022-10-05T00:53:43.438Z,74.10
2022-10-05T00:56:32.069Z,73.87
2022-10-05T00:59:17.395Z,73.36
2022-10-05T01:01:58.140Z,74.22
2022-10-05T01:04:37.024Z,74.61
2022-10-05T01:07:16.917Z,74.87
2022-10-05T01:09:57.628Z,74.90
2022-10-05T01:12:39.081Z,75.16
2022-10-05T01:15:17.165Z,75.44
2022-10-05T01:17:53.796Z,75.10
2022-10-05T01:20:36.962Z,74.57
2022-10-05T01:23:59.679Z,75.18
2022-10-05T01:26:53.075Z,74.23
2022-10-05T01:29:28.481Z,74.78
2022-10-05T01:32:05.480Z,75.09
2022-10-05T01:34:43.208Z,75.24
2022-10-05T01:37:24.517Z,75.41
2022-10-05T01:40:03.581Z,75.45
2022-10-05T01:42:52.510Z,74.89
2022-10-05T01:45:33.443Z,75.24
2022-10-05T01:48:10.603Z,75.08
2022-10-05T01:50:52.331Z,75.08
2022-10-05T01:53:37.323Z,75.27
2022-10-05T01:56:19.558Z,75.98
2022-10-05T01:59:02.498Z,77.14
2022-10-05T02:01:44.481Z,77.84
2022-10-05T02:04:42.785Z,77.83
2022-10-05T02:07:17.702Z,78.36
2022-10-05T02:09:54.273Z,78.60
2022-10-05T02:12:28.312Z,78.57
2022-10-05T02:15:04.563Z,77.60
2022-10-05T02:17:41.261Z,78.45
2022-10-05T02:20:15.962Z,79.00
2022-10-05T02:22:49.029Z,79.38
2022-10-05T02:25:21.406Z,79.70
2022-10-05T02:27:54.476Z,80.07
2022-10-05T02:30:23.029Z,80.32
2022-10-05T02:32:59.491Z,80.61
2022-10-05T02:35:27.916Z,80.85
2022-10-05T02:38:11.707Z,80.94
2022-10-05T02:40:54.855Z,80.95
2022-10-05T02:43:40.357Z,80.64
2022-10-05T02:46:25.084Z,80.36
2022-10-05T02:49:12.038Z,80.09
2022-10-05T02:51:50.126Z,79.88
2022-10-05T02:54:40.365Z,80.32
2022-10-05T02:57:20.453Z,80.62
2022-10-05T02:59:59.075Z,81.13
2022-10-05T03:02:34.846Z,81.50
2022-10-05T03:05:13.856Z,82.07
2022-10-05T03:07:56.479Z,82.61
2022-10-05T03:10:36.006Z,82.79
2022-10-05T03:13:13.906Z,83.11
2022-10-05T03:16:16.580Z,83.34
2022-10-05T03:19:02.572Z,82.80
2022-10-05T03:21:57.506Z,83.11
2022-10-05T03:25:14.077Z,83.20
2022-10-05T03:28:02.387Z,82.65
2022-10-05T03:30:42.892Z,82.12
2022-10-05T03:33:23.246Z,81.88
2022-10-05T03:36:03.514Z,82.30
2022-10-05T03:38:44.979Z,82.49
2022-10-05T03:41:21.306Z,82.51
2022-10-05T03:44:12.461Z,82.43
2022-10-05T03:46:59.723Z,82.64
2022-10-05T03:49:48.922Z,82.09
2022-10-05T03:52:22.055Z,81.73
2022-10-05T03:54:58.919Z,80.99
2022-10-05T03:57:32.473Z,81.39
2022-10-05T04:00:06.919Z,81.45
2022-10-05T04:02:42.690Z,81.45
2022-10-05T04:05:18.853Z,81.95
2022-10-05T04:07:56.622Z,82.28
2022-10-05T04:10:32.254Z,81.57
2022-10-05T04:13:05.774Z,81.54
2022-10-05T04:15:41.538Z,81.73
2022-10-05T04:18:23.353Z,80.24
2022-10-05T04:20:57.624Z,80.50
2022-10-05T04:23:39.451Z,81.15
2022-10-05T04:26:15.347Z,80.94
2022-10-05T04:28:53.696Z,80.90
2022-10-05T04:31:45.150Z,81.01
2022-10-05T04:34:45.468Z,80.20
2022-10-05T04:37:24.681Z,80.14
2022-10-05T04:40:09.511Z,80.36
2022-10-05T04:42:49.411Z,80.44
2022-10-05T04:45:38.143Z,79.38
2022-10-05T04:48:53.832Z,78.34
2022-10-05T04:51:38.108Z,78.35
2022-10-05T04:54:21.152Z,78.20
2022-10-05T04:56:55.974Z,77.62
2022-10-05T05:00:04.697Z,76.94
2022-10-05T05:03:16.184Z,77.74
2022-10-05T05:06:16.411Z,78.29
2022-10-05T05:09:14.649Z,79.00
2022-10-05T05:12:02.126Z,77.71
2022-10-05T05:14:58.102Z,76.81
2022-10-05T05:17:49.632Z,76.17
2022-10-05T05:20:28.945Z,76.91
2022-10-05T05:23:11.561Z,77.31
2022-10-05T05:25:53.130Z,77.21
2022-10-05T05:28:35.795Z,76.35
2022-10-05T05:31:19.966Z,77.21
2022-10-05T05:34:04.914Z,76.40
2022-10-05T05:36:54.278Z,76.77
2022-10-05T05:39:29.491Z,76.72
2022-10-05T05:42:17.066Z,77.28
2022-10-05T05:44:51.885Z,77.09
2022-10-05T05:47:35.109Z,77.46
2022-10-05T05:50:30.333Z,75.79
2022-10-05T05:53:07.418Z,76.17
2022-10-05T05:55:42.441Z,76.47
2022-10-05T05:58:21.739Z,77.00
2022-10-05T06:00:58.362Z,76.75
2022-10-05T06:03:38.524Z,76.50
2022-10-05T06:06:12.277Z,75.69
2022-10-05T06:08:46.426Z,75.64
2022-10-05T06:11:22.746Z,75.26
2022-10-05T06:13:52.118Z,75.38
2022-10-05T06:16:27.968Z,75.32
2022-10-05T06:19:03.925Z,74.33
2022-10-05T06:21:41.486Z,72.55
2022-10-05T06:24:20.142Z,72.30
2022-10-05T06:27:25.851Z,71.29
2022-10-05T06:30:13.015Z,70.36
2022-10-05T06:33:02.720Z,69.95
2022-10-05T06:35:53.204Z,68.86
2022-10-05T06:38:48.706Z,68.92
2022-10-05T06:41:31.440Z,68.45
2022-10-05T06:44:04.135Z,68.10
2022-10-05T06:46:36.990Z,67.90
2022-10-05T06:49:21.317Z,67.34
2022-10-05T06:52:00.683Z,67.89
2022-10-05T06:54:47.194Z,68.31
2022-10-05T06:57:36.529Z,67.93
2022-10-05T07:00:16.032Z,68.38
2022-10-05T07:02:54.847Z,67.44
2022-10-05T07:05:53.902Z,66.46
2022-10-05T07:08:39.209Z,66.52
2022-10-05T07:11:26.287Z,66.17
2022-10-05T07:14:26.244Z,64.49
2022-10-05T07:17:13.895Z,64.54
2022-10-05T07:19:52.510Z,64.15
2022-10-05T07:22:49.375Z,64.51
2022-10-05T07:25:24.889Z,63.68
2022-10-05T07:28:01.803Z,64.13
2022-10-05T07:30:36.123Z,63.91
2022-10-05T07:33:15.574Z,63.53
2022-10-05T07:36:14.078Z,63.66
2022-10-05T07:38:53.738Z,63.18
2022-10-05T07:41:37.090Z,62.62
2022-10-05T07:44:16.102Z,62.79
2022-10-05T07:46:53.249Z,62.00
2022-10-05T07:49:35.539Z,62.16
2022-10-05T07:52:11.884Z,62.53
2022-10-05T07:54:57.081Z,62.69
2022-10-05T07:57:39.336Z,62.30
2022-10-05T08:00:15.025Z,62.32
2022-10-05T08:02:51.578Z,62.60
2022-10-05T08:05:27.426Z,62.72
2022-10-05T08:08:05.355Z,62.28
2022-10-05T08:10:45.475Z,62.49
2022-10-05T08:13:24.033Z,62.26
2022-10-05T08:15:58.976Z,62.55
2022-10-05T08:18:47.143Z,63.05
2022-10-05T08:21:20.629Z,62.83
2022-10-05T08:23:58.030Z,62.57
2022-10-05T08:26:38.026Z,61.27
2022-10-05T08:29:17.905Z,62.02
2022-10-05T08:31:53.177Z,61.77
2022-10-05T08:34:30.921Z,62.52
2022-10-05T08:37:06.967Z,62.67
2022-10-05T08:39:41.175Z,62.35
2022-10-05T08:43:06.656Z,61.17
2022-10-05T08:46:19.350Z,60.50
2022-10-05T08:49:40.410Z,59.71
2022-10-05T08:52:30.740Z,60.34
2022-10-05T08:55:38.631Z,60.12
2022-10-05T08:58:34.949Z,60.87
2022-10-05T09:01:15.617Z,61.00
2022-10-05T09:04:30.470Z,60.64
2022-10-05T09:07:57.718Z,61.36
2022-10-05T09:10:59.284Z,61.35
2022-10-05T09:14:02.967Z,61.79
2022-10-05T09:16:57.957Z,61.69
2022-10-05T09:20:07.948Z,61.76
2022-10-05T09:22:44.922Z,61.69
2022-10-05T09:25:24.397Z,62.04
2022-10-05T09:27:58.025Z,61.67
2022-10-05T09:30:41.378Z,61.42
2022-10-05T09:33:59.727Z,61.50
2022-10-05T09:37:29.114Z,61.81
2022-10-05T09:40:47.457Z,60.70
2022-10-05T09:44:12.803Z,59.93
2022-10-05T09:47:33.122Z,59.85
2022-10-05T09:50:33.441Z,60.16
2022-10-05T09:53:27.185Z,59.96
2022-10-05T09:56:21.994Z,59.48
2022-10-05T09:59:40.796Z,59.93
2022-10-05T10:02:40.709Z,59.04
2022-10-05T10:05:39.330Z,59.03
2022-10-05T10:08:39.342Z,58.34
2022-10-05T10:11:33.827Z,57.94
2022-10-05T10:15:03.291Z,57.64
2022-10-05T10:18:02.530Z,57.28
2022-10-05T10:21:03.791Z,56.74
2022-10-05T10:24:03.678Z,56.53
2022-10-05T10:27:17.336Z,55.32
2022-10-05T10:30:09.437Z,55.69
2022-10-05T10:33:39.639Z,55.01
2022-10-05T10:36:18.811Z,54.41
2022-10-05T10:39:02.622Z,53.83
2022-10-05T10:42:22.559Z,54.04
2022-10-05T10:45:23.970Z,53.37
2022-10-05T10:48:04.982Z,53.27
2022-10-05T10:51:18.303Z,51.81
2022-10-05T10:54:23.670Z,51.02
2022-10-05T10:57:06.165Z,50.12
2022-10-05T11:00:35.138Z,49.56
2022-10-05T11:03:58.390Z,48.47
2022-10-05T11:07:07.065Z,48.58
2022-10-05T11:10:09.730Z,48.99
2022-10-05T11:13:24.638Z,48.57
2022-10-05T11:16:28.097Z,48.46
2022-10-05T11:20:02.404Z,47.82
2022-10-05T11:23:04.205Z,49.34
2022-10-05T11:26:14.529Z,49.37
2022-10-05T11:29:17.253Z,50.14
2022-10-05T11:32:27.390Z,50.05
2022-10-05T11:35:37.288Z,51.26
2022-10-05T11:38:50.030Z,51.54
2022-10-05T11:41:49.132Z,51.39
2022-10-05T11:45:15.321Z,52.29
2022-10-05T11:48:11.442Z,52.90
2022-10-05T11:50:51.336Z,54.20
2022-10-05T11:53:28.009Z,53.10
2022-10-05T11:56:09.277Z,53.37
2022-10-05T11:58:48.019Z,53.29
2022-10-05T12:01:29.972Z,53.46
2022-10-05T12:04:17.937Z,53.61
2022-10-05T12:07:10.420Z,53.70
2022-10-05T12:10:17.894Z,53.72
2022-10-05T12:13:09.610Z,53.39
2022-10-05T12:15:49.151Z,52.97
2022-10-05T12:18:42.383Z,53.06
2022-10-05T12:21:28.566Z,52.82
2022-10-05T12:24:01.086Z,52.97
2022-10-05T12:26:37.662Z,52.82
2022-10-05T12:29:16.865Z,52.31
2022-10-05T12:31:58.747Z,52.84
2022-10-05T12:34:44.756Z,53.49
2022-10-05T12:37:39.736Z,52.88
2022-10-05T12:40:25.574Z,53.11
2022-10-05T12:43:07.553Z,52.99
2022-10-05T12:45:53.893Z,52.92
2022-10-05T12:48:53.020Z,52.56
2022-10-05T12:51:34.797Z,52.69
2022-10-05T12:54:17.652Z,52.11
2022-10-05T12:56:55.665Z,51.76
2022-10-05T12:59:41.069Z,51.99
2022-10-05T13:02:28.580Z,52.41
2022-10-05T13:05:15.263Z,52.97
2022-10-05T13:08:07.802Z,52.87
2022-10-05T13:10:43.692Z,52.71
2022-10-05T13:13:35.249Z,52.63
2022-10-05T13:16:20.664Z,52.75
2022-10-05T13:19:32.017Z,52.63
2022-10-05T13:22:24.460Z,51.23
2022-10-05T13:25:09.633Z,51.62
2022-10-05T13:27:46.042Z,51.57
2022-10-05T13:30:17.903Z,52.21
2022-10-05T13:32:54.707Z,52.23
2022-10-05T13:35:41.158Z,51.57
2022-10-05T13:38:26.247Z,51.41
2022-10-05T13:41:11.480Z,51.58
2022-10-05T13:43:54.973Z,51.29
2022-10-05T13:46:38.392Z,52.00
2022-10-05T13:49:26.452Z,50.10
2022-10-05T13:52:08.401Z,50.95
2022-10-05T13:54:46.551Z,51.02
2022-10-05T13:57:32.970Z,50.95
2022-10-05T14:00:14.377Z,51.17
2022-10-05T14:02:47.188Z,51.54
2022-10-05T14:05:21.471Z,50.92
2022-10-05T14:07:54.901Z,51.40
2022-10-05T14:10:38.415Z,51.75
2022-10-05T14:13:26.365Z,51.71
2022-10-05T14:16:21.298Z,52.04
2022-10-05T14:18:57.489Z,52.53
2022-10-05T14:21:30.201Z,52.30
2022-10-05T14:24:42.504Z,52.38
2022-10-05T14:27:23.911Z,52.72
2022-10-05T14:30:00.633Z,51.67
2022-10-05T14:32:32.797Z,52.25
2022-10-05T14:35:15.765Z,52.40
2022-10-05T14:37:52.253Z,53.04
2022-10-05T14:40:30.956Z,52.70
2022-10-05T14:43:02.811Z,53.71
2022-10-05T14:45:31.065Z,53.69
2022-10-05T14:48:12.182Z,54.00
2022-10-05T14:50:59.252Z,53.62
2022-10-05T14:53:40.299Z,52.60
2022-10-05T14:56:46.391Z,51.47
2022-10-05T14:59:47.857Z,51.47
2022-10-05T15:02:50.015Z,50.97
2022-10-05T15:05:27.099Z,51.34
2022-10-05T15:08:08.624Z,52.12
2022-10-05T15:10:50.013Z,51.86
2022-10-05T15:13:23.153Z,52.35
2022-10-05T15:15:54.993Z,52.33
2022-10-05T15:18:37.224Z,52.01
2022-10-05T15:21:40.488Z,52.16
2022-10-05T15:24:19.168Z,52.25
2022-10-05T15:26:55.981Z,52.45
2022-10-05T15:29:52.396Z,52.51
2022-10-05T15:32:41.580Z,52.66
2022-10-05T15:35:36.665Z,53.20
2022-10-05T15:38:20.946Z,53.73
2022-10-05T15:41:01.145Z,53.21
2022-10-05T15:43:46.551Z,53.56
2022-10-05T15:46:21.939Z,54.06
2022-10-05T15:49:04.089Z,53.68
2022-10-05T15:51:50.742Z,54.33
2022-10-05T15:54:42.255Z,54.70
2022-10-05T15:57:22.574Z,54.65
2022-10-05T16:00:04.053Z,55.80
2022-10-05T16:02:42.589Z,55.98
2022-10-05T16:05:59.825Z,57.26
2022-10-05T16:09:01.373Z,57.51
2022-10-05T16:11:48.282Z,58.04
2022-10-05T16:14:35.413Z,59.05
2022-10-05T16:17:25.380Z,58.58
2022-10-05T16:20:14.559Z,59.11
2022-10-05T16:22:53.189Z,60.00
2022-10-05T16:25:26.161Z,59.81
2022-10-05T16:28:18.948Z,60.80
2022-10-05T16:31:00.679Z,61.14
2022-10-05T16:33:49.776Z,61.46
2022-10-05T16:36:40.043Z,62.21
2022-10-05T16:39:17.347Z,62.97
2022-10-05T16:41:57.467Z,62.39
2022-10-05T16:44:40.520Z,62.86
2022-10-05T16:47:38.992Z,62.63
2022-10-05T16:50:24.097Z,62.20
2022-10-05T16:52:59.810Z,62.63
2022-10-05T16:55:37.593Z,62.67
2022-10-05T16:58:23.696Z,63.07
2022-10-05T17:01:12.873Z,63.71
2022-10-05T17:04:03.754Z,64.28
2022-10-05T17:06:57.898Z,64.60
2022-10-05T17:09:42.797Z,64.55
2022-10-05T17:12:38.898Z,64.91
2022-10-05T17:15:31.789Z,65.75
2022-10-05T17:18:23.530Z,65.30
2022-10-05T17:21:13.674Z,65.44
2022-10-05T17:24:01.790Z,65.33
2022-10-05T17:26:58.428Z,66.58
2022-10-05T17:29:47.511Z,66.23
2022-10-05T17:32:39.508Z,66.63
2022-10-05T17:35:19.229Z,67.27
2022-10-05T17:38:14.289Z,67.18
2022-10-05T17:41:15.322Z,67.56
2022-10-05T17:44:24.815Z,68.22
2022-10-05T17:46:58.696Z,67.17
2022-10-05T17:50:16.884Z,67.08
2022-10-05T17:53:03.448Z,68.17
2022-10-05T17:56:04.051Z,69.38
2022-10-05T17:59:04.129Z,69.27
2022-10-05T18:01:37.756Z,68.90
2022-10-05T18:04:38.629Z,68.62
2022-10-05T18:07:25.337Z,69.80
2022-10-05T18:10:24.462Z,69.96
2022-10-05T18:13:34.574Z,69.84
2022-10-05T18:16:02.673Z,69.78
2022-10-05T18:18:58.955Z,69.31
2022-10-05T18:21:35.515Z,70.37
2022-10-05T18:25:03.461Z,71.29
2022-10-05T18:28:05.304Z,70.01
2022-10-05T18:30:55.017Z,70.23
2022-10-05T18:33:54.250Z,69.84
2022-10-05T18:36:51.450Z,70.52
2022-10-05T18:39:46.177Z,69.85
2022-10-05T18:42:27.168Z,69.48
2022-10-05T18:45:04.617Z,69.44
2022-10-05T18:47:45.338Z,69.73
2022-10-05T18:50:27.939Z,69.85
2022-10-05T18:53:23.372Z,69.45
2022-10-05T18:56:02.134Z,69.65
2022-10-05T18:58:42.594Z,70.44
2022-10-05T19:01:55.038Z,70.03
2022-10-05T19:04:38.658Z,71.04
2022-10-05T19:07:24.309Z,71.04
2022-10-05T19:10:08.643Z,69.91
2022-10-05T19:13:02.419Z,70.79
2022-10-05T19:15:42.260Z,69.32
2022-10-05T19:18:44.046Z,69.90
2022-10-05T19:21:31.975Z,70.69
2022-10-05T19:24:23.111Z,70.99
2022-10-05T19:27:06.695Z,70.53
2022-10-05T19:30:13.518Z,70.73
2022-10-05T19:32:59.656Z,71.14
2022-10-05T19:35:43.801Z,70.90
2022-10-05T19:38:28.120Z,71.12
2022-10-05T19:41:06.775Z,71.69
2022-10-05T19:43:54.241Z,71.26
2022-10-05T19:46:41.087Z,71.80
2022-10-05T19:49:11.437Z,72.00
2022-10-05T19:51:51.775Z,71.14
2022-10-05T19:54:25.913Z,71.55
2022-10-05T19:56:56.257Z,71.78
2022-10-05T19:59:31.324Z,70.84
2022-10-05T20:02:00.570Z,70.27
2022-10-05T20:04:37.258Z,70.31
2022-10-05T20:07:06.677Z,71.23
2022-10-05T20:09:52.056Z,71.75
2022-10-05T20:12:22.831Z,72.08
2022-10-05T20:15:26.194Z,71.27
2022-10-05T20:18:12.058Z,71.67
2022-10-05T20:20:45.752Z,71.38
2022-10-05T20:23:27.872Z,71.64
2022-10-05T20:26:13.634Z,71.68
2022-10-05T20:28:41.857Z,71.99
2022-10-05T20:31:09.890Z,71.91
2022-10-05T20:33:38.926Z,71.91
2022-10-05T20:36:08.562Z,72.82
2022-10-05T20:38:41.079Z,72.22
2022-10-05T20:41:09.623Z,72.59
2022-10-05T20:43:39.225Z,72.55
2022-10-05T20:46:07.521Z,71.94
2022-10-05T20:48:36.547Z,72.77
2022-10-05T20:51:04.661Z,72.76
2022-10-05T20:53:33.561Z,72.35
2022-10-05T20:56:04.625Z,72.45
2022-10-05T20:58:32.642Z,72.37
2022-10-05T21:01:19.591Z,71.38
2022-10-05T21:03:48.153Z,71.52
2022-10-05T21:06:17.891Z,71.80
2022-10-05T21:08:46.304Z,72.03
2022-10-05T21:11:15.900Z,72.57
2022-10-05T21:13:45.745Z,72.95
2022-10-05T21:16:15.515Z,73.17
2022-10-05T21:18:46.871Z,73.41
2022-10-05T21:21:17.028Z,73.57
2022-10-05T21:23:45.492Z,74.34
2022-10-05T21:26:16.115Z,75.21
2022-10-05T21:28:44.113Z,75.96
2022-10-05T21:31:12.143Z,76.29
2022-10-05T21:33:40.150Z,76.60
2022-10-05T21:36:08.152Z,76.98
2022-10-05T21:38:36.147Z,77.33
2022-10-05T21:41:04.651Z,77.60
2022-10-05T21:43:34.039Z,78.00
2022-10-05T21:46:02.708Z,78.50
2022-10-05T21:48:34.773Z,78.94
2022-10-05T21:51:03.386Z,79.15
2022-10-05T21:53:36.355Z,79.49
2022-10-05T21:56:10.919Z,79.63
2022-10-05T21:58:44.664Z,79.94
2022-10-05T22:01:12.798Z,79.98
2022-10-05T22:03:40.934Z,80.27
2022-10-05T22:06:09.236Z,80.37
2022-10-05T22:08:37.481Z,80.46
2022-10-05T22:11:12.371Z,79.90
2022-10-05T22:13:48.135Z,79.64
2022-10-05T22:16:19.645Z,79.98
2022-10-05T22:18:48.128Z,80.20
2022-10-05T22:21:16.762Z,80.23
2022-10-05T22:23:46.963Z,79.59
2022-10-05T22:26:20.143Z,79.38
2022-10-05T22:28:52.327Z,79.43
2022-10-05T22:31:20.389Z,79.48
2022-10-05T22:33:48.555Z,79.19
2022-10-05T22:36:17.287Z,78.94
2022-10-05T22:38:46.571Z,79.16
2022-10-05T22:41:16.450Z,79.43
2022-10-05T22:43:44.483Z,79.65
2022-10-05T22:46:14.907Z,79.86
2022-10-05T22:48:43.128Z,80.14
2022-10-05T22:51:11.284Z,80.19
2022-10-05T22:53:39.600Z,80.39
2022-10-05T22:56:10.304Z,80.71
2022-10-05T22:58:39.276Z,80.79
2022-10-05T23:01:10.232Z,80.83
2022-10-05T23:03:39.913Z,80.41
2022-10-05T23:06:11.623Z,80.55
2022-10-05T23:08:41.625Z,80.51
2022-10-05T23:11:13.312Z,80.56
2022-10-05T23:13:42.073Z,80.50
2022-10-05T23:16:12.802Z,80.64
2022-10-05T23:18:43.313Z,80.22
2022-10-05T23:21:12.610Z,80.22
2022-10-05T23:23:43.340Z,80.07
2022-10-05T23:26:12.773Z,79.91
2022-10-05T23:28:42.958Z,80.74
2022-10-05T23:31:11.088Z,80.93
2022-10-05T23:33:39.103Z,81.27
2022-10-05T23:36:11.301Z,81.48
2022-10-05T23:38:39.506Z,81.82
2022-10-05T23:41:08.939Z,82.01
2022-10-05T23:43:37.822Z,82.17
2022-10-05T23:46:08.388Z,82.41
2022-10-05T23:48:38.087Z,82.50
2022-10-05T23:51:11.036Z,82.71
2022-10-05T23:53:39.435Z,82.79
2022-10-05T23:56:08.410Z,83.01
2022-10-05T23:58:36.360Z,83.26
